Time;durP1;ratioP1;P1;durP2;ratioP2;P2;SDS_P1;SDS_P2;PMS_P1;PMS_P2;Temp;Humidity;BMP_temperature;BMP_pressure;BME280_temperature;BME280_humidity;BME280_pressure;Samples;Min_cycle;Max_cycle;Signal;HPM_P1;HPM_P2
2022/01/08 00:01:31;;;;;;;57.20;22.52;;;-3.70;99.90;;;;;;4191688;28;20494;-48
2022/01/08 00:03:32;;;;;;;56.20;23.93;;;-3.70;99.90;;;;;;4190478;28;20432;-54
2022/01/08 00:05:33;;;;;;;54.92;23.67;;;-3.60;99.90;;;;;;4191182;28;20269;-53
2022/01/08 00:07:34;;;;;;;52.37;23.30;;;-3.60;99.90;;;;;;4190360;28;20786;-55
2022/01/08 00:09:35;;;;;;;46.67;21.33;;;-3.60;99.90;;;;;;4191472;28;20350;-49
2022/01/08 00:11:40;;;;;;;51.05;21.35;;;-3.60;99.90;;;;;;4190019;28;20771;-55
2022/01/08 00:13:41;;;;;;;40.57;20.43;;;-3.50;99.90;;;;;;4191376;28;20044;-48
2022/01/08 00:15:42;;;;;;;44.87;20.07;;;-3.40;99.90;;;;;;4190648;28;20343;-52
2022/01/08 00:17:43;;;;;;;43.83;20.10;;;-3.30;99.90;;;;;;4191464;28;20277;-53
2022/01/08 00:19:45;;;;;;;48.53;20.00;;;-3.30;99.90;;;;;;4190916;28;20641;-54
2022/01/08 00:21:46;;;;;;;42.03;19.47;;;-3.30;99.90;;;;;;4190503;28;20834;-58
2022/01/08 00:23:47;;;;;;;43.00;20.05;;;-3.20;99.90;;;;;;4191253;28;20682;-54
2022/01/08 00:25:49;;;;;;;40.87;19.03;;;-3.20;99.90;;;;;;4190201;28;20378;-58
2022/01/08 00:27:50;;;;;;;41.20;18.57;;;-3.10;99.90;;;;;;4191282;28;20382;-53
2022/01/08 00:29:52;;;;;;;41.40;18.33;;;-3.10;99.90;;;;;;4190347;28;20316;-48
2022/01/08 00:31:53;;;;;;;49.30;21.20;;;-3.10;99.90;;;;;;4173306;28;20423;-53
2022/01/08 00:33:54;;;;;;;45.20;21.90;;;-3.10;99.90;;;;;;4190501;28;20269;-52
2022/01/08 00:35:55;;;;;;;46.83;20.90;;;-3.20;99.90;;;;;;4190504;28;20823;-60
2022/01/08 00:37:56;;;;;;;53.33;23.83;;;-3.30;99.90;;;;;;4189825;28;20720;-51
2022/01/08 00:39:57;;;;;;;56.80;22.75;;;-3.40;99.90;;;;;;4191513;28;20269;-52
2022/01/08 00:41:58;;;;;;;49.10;23.03;;;-3.30;99.90;;;;;;4190015;28;20407;-51
2022/01/08 00:43:59;;;;;;;48.27;22.70;;;-3.40;99.90;;;;;;4190840;28;20262;-51
2022/01/08 00:46:00;;;;;;;46.67;22.07;;;-3.40;99.90;;;;;;4189937;28;20311;-50
2022/01/08 00:48:02;;;;;;;53.80;22.65;;;-3.50;99.90;;;;;;4190965;28;20304;-60
2022/01/08 00:50:05;;;;;;;53.63;23.93;;;-3.50;99.90;;;;;;4189387;28;20496;-53
2022/01/08 00:52:07;;;;;;;55.60;22.35;;;-3.60;99.90;;;;;;4190223;28;20374;-60
2022/01/08 00:54:08;;;;;;;53.33;22.63;;;-3.50;99.90;;;;;;4189168;28;20036;-63
2022/01/08 00:56:09;;;;;;;53.97;21.27;;;-3.50;99.90;;;;;;4189759;28;20254;-53
2022/01/08 00:58:11;;;;;;;50.10;21.97;;;-3.40;99.90;;;;;;4190331;28;20289;-52
2022/01/08 01:00:13;;;;;;;56.30;23.48;;;-3.40;99.90;;;;;;4189497;28;20261;-55
2022/01/08 01:02:14;;;;;;;59.90;24.27;;;-3.30;99.90;;;;;;4190419;28;20094;-53
2022/01/08 01:04:15;;;;;;;46.87;23.50;;;-3.30;99.90;;;;;;4189703;28;20819;-61
2022/01/08 01:06:16;;;;;;;52.07;22.77;;;-3.20;99.90;;;;;;4189200;28;20323;-53
2022/01/08 01:08:18;;;;;;;51.93;22.73;;;-3.20;99.90;;;;;;4188602;28;20379;-51
2022/01/08 01:10:19;;;;;;;53.60;22.33;;;-3.20;99.90;;;;;;4190510;28;21137;-51
2022/01/08 01:12:20;;;;;;;50.53;23.43;;;-3.20;99.90;;;;;;4189164;28;20297;-51
2022/01/08 01:14:22;;;;;;;67.60;23.77;;;-3.20;99.90;;;;;;4191257;28;20319;-60
2022/01/08 01:16:23;;;;;;;50.30;23.57;;;-3.20;99.90;;;;;;4189621;28;20281;-52
2022/01/08 01:18:24;;;;;;;56.07;24.03;;;-3.20;99.90;;;;;;4190359;28;20269;-49
2022/01/08 01:20:26;;;;;;;52.40;21.03;;;-3.20;99.90;;;;;;4189511;28;20749;-51
2022/01/08 01:22:36;;;;;;;58.17;25.40;;;-3.10;99.90;;;;;;4189870;28;20253;-59
2022/01/08 01:24:39;;;;;;;45.95;23.27;;;-3.10;99.90;;;;;;4188871;28;20312;-58
2022/01/08 01:26:49;;;;;;;51.37;23.03;;;-3.10;99.90;;;;;;4189683;28;20052;-51
2022/01/08 01:29:11;;;;;;;49.80;21.70;;;-3.10;99.90;;;;;;4189820;28;20289;-53
2022/01/08 01:47:12;;;;;;;51.80;20.87;;;-3.10;99.90;;;;;;4165751;28;20249;-50
2022/01/08 01:49:13;;;;;;;45.30;20.20;;;-3.00;99.90;;;;;;4190086;28;20311;-49
2022/01/08 01:51:22;;;;;;;46.33;20.93;;;-3.00;99.90;;;;;;4189454;28;20335;-48
2022/01/08 01:53:23;;;;;;;44.17;20.50;;;-3.00;99.90;;;;;;4190365;28;20857;-66
2022/01/08 01:55:25;;;;;;;49.73;21.00;;;-3.00;99.90;;;;;;4189188;28;20269;-51
2022/01/08 01:57:27;;;;;;;46.07;20.63;;;-2.90;99.90;;;;;;4190574;28;20775;-51
2022/01/08 01:59:31;;;;;;;50.73;20.60;;;-2.90;99.90;;;;;;4188740;28;20241;-51
2022/01/08 02:01:33;;;;;;;51.37;22.17;;;-2.90;99.90;;;;;;4189090;28;20265;-54
2022/01/08 02:03:35;;;;;;;48.77;21.27;;;-2.90;99.90;;;;;;4189292;28;21173;-54
2022/01/08 02:05:36;;;;;;;52.83;22.40;;;-3.00;99.90;;;;;;4191874;28;20319;-52
2022/01/08 02:07:38;;;;;;;48.30;21.57;;;-3.00;99.90;;;;;;4193133;28;20649;-50
2022/01/08 02:09:40;;;;;;;46.10;21.60;;;-3.00;99.90;;;;;;4192617;28;20652;-48
2022/01/08 02:12:02;;;;;;;54.30;23.40;;;-3.00;99.90;;;;;;4193284;28;20277;-52
2022/01/08 02:14:04;;;;;;;47.40;22.13;;;-3.00;99.90;;;;;;4192373;28;20880;-52
2022/01/08 02:16:07;;;;;;;52.67;21.20;;;-3.00;99.90;;;;;;4193391;28;20331;-52
2022/01/08 02:18:08;;;;;;;43.63;21.07;;;-3.00;99.90;;;;;;4191822;28;20278;-47
2022/01/08 02:20:10;;;;;;;50.87;21.37;;;-2.90;99.90;;;;;;4192203;28;20315;-52
2022/01/08 02:22:15;;;;;;;51.03;23.23;;;-3.00;99.90;;;;;;4191935;28;20315;-50
2022/01/08 02:24:17;;;;;;;46.70;20.83;;;-3.00;99.90;;;;;;4193037;28;20831;-63
2022/01/08 02:26:18;;;;;;;46.93;20.80;;;-3.00;99.90;;;;;;4191433;28;20346;-53
2022/01/08 02:28:21;;;;;;;42.73;20.60;;;-2.90;99.90;;;;;;4193307;28;20321;-57
2022/01/08 02:30:22;;;;;;;45.20;20.70;;;-2.90;99.90;;;;;;4191263;28;20274;-56
2022/01/08 02:32:29;;;;;;;43.10;21.60;;;-2.90;99.90;;;;;;4193063;28;20334;-49
2022/01/08 02:34:31;;;;;;;44.33;20.70;;;-2.90;99.90;;;;;;4191733;28;20801;-49
2022/01/08 02:36:34;;;;;;;46.27;20.70;;;-2.90;99.90;;;;;;4192868;28;20269;-51
2022/01/08 02:38:35;;;;;;;47.17;21.03;;;-2.90;99.90;;;;;;4191766;28;20261;-57
2022/01/08 02:40:36;;;;;;;51.10;22.67;;;-3.00;99.90;;;;;;4192868;28;20656;-48
2022/01/08 02:42:49;;;;;;;42.43;21.47;;;-3.00;99.90;;;;;;4191986;28;20265;-48
2022/01/08 02:44:50;;;;;;;48.70;21.67;;;-3.00;99.90;;;;;;4192914;28;20277;-50
2022/01/08 02:46:51;;;;;;;52.43;23.07;;;-3.10;99.90;;;;;;4191606;28;20266;-56
2022/01/08 02:48:52;;;;;;;48.47;21.97;;;-3.10;99.90;;;;;;4192388;28;20277;-49
2022/01/08 02:50:54;;;;;;;43.80;21.57;;;-3.10;99.90;;;;;;4191876;28;20269;-50
2022/01/08 02:52:55;;;;;;;40.43;19.70;;;-3.10;99.90;;;;;;4191740;28;21187;-52
2022/01/08 02:54:56;;;;;;;44.20;20.40;;;-3.10;99.90;;;;;;4192389;28;20331;-48
2022/01/08 02:56:57;;;;;;;50.53;20.67;;;-3.20;99.90;;;;;;4191362;28;21119;-57
2022/01/08 02:58:58;;;;;;;55.23;23.23;;;-3.20;99.90;;;;;;4192962;28;20273;-52
2022/01/08 03:01:00;;;;;;;50.13;23.73;;;-3.10;99.90;;;;;;4191594;28;20274;-61
2022/01/08 03:03:02;;;;;;;50.23;23.57;;;-3.10;99.90;;;;;;4192878;28;20307;-52
2022/01/08 03:05:04;;;;;;;52.03;21.77;;;-3.10;99.90;;;;;;4191638;28;20691;-50
2022/01/08 03:07:05;;;;;;;48.90;22.67;;;-3.10;99.90;;;;;;4191939;28;20277;-53
2022/01/08 03:09:07;;;;;;;50.40;22.20;;;-3.20;99.90;;;;;;4191649;28;20277;-65
2022/01/08 03:11:08;;;;;;;47.87;20.83;;;-3.20;99.90;;;;;;4192576;28;20327;-50
2022/01/08 03:13:09;;;;;;;51.23;21.20;;;-3.20;99.90;;;;;;4191781;28;20835;-49
2022/01/08 03:15:16;;;;;;;53.53;22.77;;;-3.20;99.90;;;;;;4192192;28;20346;-49
2022/01/08 03:17:17;;;;;;;48.80;22.03;;;-3.20;99.90;;;;;;4190591;28;20311;-50
2022/01/08 03:19:19;;;;;;;46.73;23.83;;;-3.20;99.90;;;;;;4192064;28;20291;-51
2022/01/08 03:21:22;;;;;;;45.03;21.93;;;-3.10;99.90;;;;;;4191798;28;21082;-52
2022/01/08 03:23:24;;;;;;;49.67;22.40;;;-3.10;99.90;;;;;;4191776;28;20269;-52
2022/01/08 03:25:25;;;;;;;48.13;20.97;;;-3.00;99.90;;;;;;4191795;28;20037;-51
2022/01/08 03:27:27;;;;;;;56.83;23.63;;;-3.00;99.90;;;;;;4190332;28;20323;-52
2022/01/08 03:29:28;;;;;;;54.83;23.10;;;-3.00;99.90;;;;;;4192137;28;20908;-52
2022/01/08 03:31:29;;;;;;;46.63;22.47;;;-3.00;99.90;;;;;;4191007;28;20261;-48
2022/01/08 03:33:30;;;;;;;44.70;20.27;;;-3.10;99.90;;;;;;4191533;28;20347;-49
2022/01/08 03:35:33;;;;;;;43.90;20.70;;;-3.10;99.90;;;;;;4190956;28;20758;-48
2022/01/08 03:37:34;;;;;;;51.80;20.63;;;-3.10;99.90;;;;;;4192426;28;20258;-47
2022/01/08 03:39:36;;;;;;;54.57;24.53;;;-3.10;99.90;;;;;;4190846;28;20273;-58
2022/01/08 03:41:37;;;;;;;55.17;25.13;;;-3.10;99.90;;;;;;4192265;28;20283;-56
2022/01/08 03:43:38;;;;;;;53.90;25.00;;;-3.10;99.90;;;;;;4190858;28;20335;-61
2022/01/08 03:45:39;;;;;;;55.67;23.90;;;-3.10;99.90;;;;;;4192678;28;20676;-52
2022/01/08 03:49:55;;;;;;;62.83;26.23;;;-3.00;99.90;;;;;;4192066;28;20277;-51
2022/01/08 03:51:56;;;;;;;61.43;24.67;;;-3.10;99.90;;;;;;4191207;28;20656;-52
2022/01/08 03:53:57;;;;;;;60.30;25.43;;;-3.10;99.90;;;;;;4191708;28;20297;-48
2022/01/08 03:55:58;;;;;;;56.07;24.37;;;-3.10;99.90;;;;;;4191391;28;20746;-52
2022/01/08 03:57:59;;;;;;;54.60;23.90;;;-3.10;99.90;;;;;;4191114;28;20673;-48
2022/01/08 04:00:01;;;;;;;52.17;24.20;;;-3.00;99.90;;;;;;4191374;28;20710;-49
2022/01/08 04:02:02;;;;;;;49.93;22.03;;;-3.00;99.90;;;;;;4190623;28;20326;-51
2022/01/08 04:04:03;;;;;;;50.97;21.80;;;-3.00;99.90;;;;;;4191835;28;20273;-47
2022/01/08 04:06:05;;;;;;;47.97;20.37;;;-3.00;99.90;;;;;;4190245;28;20274;-47
2022/01/08 04:08:06;;;;;;;43.93;20.43;;;-3.00;99.90;;;;;;4191480;28;20277;-53
2022/01/08 04:10:08;;;;;;;49.57;21.90;;;-3.00;99.90;;;;;;4191140;28;20664;-48
2022/01/08 04:12:09;;;;;;;44.20;21.37;;;-3.00;99.90;;;;;;4191488;28;20269;-48
2022/01/08 04:14:12;;;;;;;48.63;20.83;;;-3.00;99.90;;;;;;4189796;28;20261;-52
2022/01/08 04:16:14;;;;;;;49.60;21.57;;;-3.00;99.90;;;;;;4192161;28;20806;-51
2022/01/08 04:18:15;;;;;;;46.03;21.47;;;-3.00;99.90;;;;;;4190375;28;20743;-54
2022/01/08 04:20:18;;;;;;;46.00;21.73;;;-3.00;99.90;;;;;;4191197;28;20265;-49
2022/01/08 04:22:19;;;;;;;46.67;20.90;;;-3.00;99.90;;;;;;4190424;28;20270;-54
2022/01/08 04:24:20;;;;;;;49.73;21.43;;;-3.00;99.90;;;;;;4191367;28;20330;-48
2022/01/08 04:26:22;;;;;;;45.13;20.90;;;-3.00;99.90;;;;;;4190676;28;20269;-47
2022/01/08 04:28:23;;;;;;;49.23;20.90;;;-3.00;99.90;;;;;;4190705;28;20331;-53
2022/01/08 04:30:24;;;;;;;48.57;21.20;;;-3.10;99.90;;;;;;4190649;28;20265;-48
2022/01/08 04:32:25;;;;;;;37.90;18.73;;;-3.10;99.90;;;;;;4189949;28;20269;-48
2022/01/08 04:34:27;;;;;;;38.33;16.83;;;-3.10;99.90;;;;;;4191413;28;20273;-52
2022/01/08 04:36:28;;;;;;;40.43;18.63;;;-3.10;99.90;;;;;;4190016;28;20550;-52
2022/01/08 04:38:31;;;;;;;41.43;17.47;;;-3.20;99.90;;;;;;4191645;28;21817;-49
2022/01/08 04:40:33;;;;;;;35.07;16.47;;;-3.10;99.90;;;;;;4188626;28;20297;-47
2022/01/08 04:42:34;;;;;;;33.73;16.83;;;-3.10;99.90;;;;;;4190701;28;20269;-48
2022/01/08 04:44:35;;;;;;;36.17;17.03;;;-3.20;99.90;;;;;;4190234;28;20320;-50
2022/01/08 04:46:38;;;;;;;36.70;15.50;;;-3.20;99.90;;;;;;4191647;28;20258;-60
2022/01/08 04:48:40;;;;;;;32.57;15.33;;;-3.10;99.90;;;;;;4189809;28;20032;-47
2022/01/08 04:50:41;;;;;;;36.90;18.33;;;-3.10;99.90;;;;;;4191147;28;20339;-49
2022/01/08 04:52:42;;;;;;;33.90;15.43;;;-3.00;99.90;;;;;;4189573;28;20693;-49
2022/01/08 04:54:43;;;;;;;38.30;17.67;;;-3.00;99.90;;;;;;4190979;28;20284;-49
2022/01/08 04:56:44;;;;;;;39.17;18.83;;;-3.00;99.90;;;;;;4189490;28;20656;-52
2022/01/08 04:58:45;;;;;;;29.47;15.57;;;-3.00;99.90;;;;;;4190268;28;20323;-49
2022/01/08 05:00:47;;;;;;;34.23;16.20;;;-3.00;99.90;;;;;;4189628;28;20318;-52
2022/01/08 05:02:48;;;;;;;34.13;15.97;;;-3.00;99.90;;;;;;4190093;28;20319;-49
2022/01/08 05:04:50;;;;;;;30.53;16.20;;;-3.00;99.90;;;;;;4190766;28;20257;-54
2022/01/08 05:06:51;;;;;;;37.10;17.00;;;-3.00;99.90;;;;;;4188986;28;20267;-52
2022/01/08 05:08:52;;;;;;;34.23;16.90;;;-3.00;99.90;;;;;;4190694;28;20668;-49
2022/01/08 05:10:53;;;;;;;42.43;19.03;;;-3.00;99.90;;;;;;4189497;28;20265;-55
2022/01/08 05:12:54;;;;;;;40.50;17.70;;;-3.00;99.90;;;;;;4190674;28;20293;-49
2022/01/08 05:14:56;;;;;;;39.60;18.37;;;-3.00;99.90;;;;;;4189367;28;20277;-51
2022/01/08 05:17:02;;;;;;;41.50;17.27;;;-3.00;99.90;;;;;;4191188;28;20273;-48
2022/01/08 05:19:03;;;;;;;41.30;17.77;;;-3.00;99.90;;;;;;4189510;28;20269;-53
2022/01/08 05:21:13;;;;;;;36.83;17.83;;;-3.00;99.90;;;;;;4190463;28;20615;-52
2022/01/08 05:23:14;;;;;;;36.65;18.25;;;-3.00;99.90;;;;;;4189849;28;20270;-54
2022/01/08 05:25:18;;;;;;;42.33;16.80;;;-3.00;99.90;;;;;;4190404;28;20123;-52
2022/01/08 05:27:19;;;;;;;35.50;15.80;;;-3.00;99.90;;;;;;4188892;28;20327;-52
2022/01/08 05:29:20;;;;;;;42.33;17.70;;;-3.00;99.90;;;;;;4190537;28;20311;-51
2022/01/08 05:31:23;;;;;;;38.87;16.83;;;-3.00;99.90;;;;;;4189221;28;20257;-62
2022/01/08 05:33:24;;;;;;;29.60;15.37;;;-2.90;99.90;;;;;;4189869;28;20292;-48
2022/01/08 05:35:27;;;;;;;35.35;16.13;;;-2.90;99.90;;;;;;4189579;28;20649;-53
2022/01/08 05:37:28;;;;;;;37.17;17.10;;;-3.00;99.90;;;;;;4189676;28;20529;-55
2022/01/08 05:39:29;;;;;;;39.47;16.70;;;-2.90;99.90;;;;;;4189171;28;20807;-54
2022/01/08 05:41:30;;;;;;;37.53;16.83;;;-2.90;99.90;;;;;;4189159;28;20327;-53
2022/01/08 05:43:31;;;;;;;35.03;17.73;;;-2.90;99.90;;;;;;4190334;28;20269;-49
2022/01/08 05:45:32;;;;;;;36.67;17.37;;;-2.90;99.90;;;;;;4189577;28;20397;-47
2022/01/08 05:47:34;;;;;;;37.23;17.70;;;-2.90;99.90;;;;;;4190327;28;20311;-51
2022/01/08 05:49:36;;;;;;;37.70;17.30;;;-2.90;99.90;;;;;;4189241;28;20270;-50
2022/01/08 05:51:37;;;;;;;36.40;16.63;;;-2.90;99.90;;;;;;4190539;28;21063;-50
2022/01/08 05:53:38;;;;;;;35.83;17.20;;;-2.90;99.90;;;;;;4188953;28;20347;-49
2022/01/08 05:55:39;;;;;;;37.77;18.50;;;-2.90;99.90;;;;;;4189826;28;20334;-52
2022/01/08 05:57:40;;;;;;;36.00;18.30;;;-2.90;99.90;;;;;;4188821;28;20656;-59
2022/01/08 05:59:42;;;;;;;36.20;17.10;;;-2.90;99.90;;;;;;4190072;28;20799;-49
2022/01/08 06:01:43;;;;;;;38.60;17.83;;;-2.90;99.90;;;;;;4188942;28;20261;-48
2022/01/08 06:03:44;;;;;;;32.95;16.95;;;-3.00;99.90;;;;;;4189727;28;20277;-59
2022/01/08 06:05:45;;;;;;;31.53;16.33;;;-3.00;99.90;;;;;;4189880;28;20133;-49
2022/01/08 06:07:46;;;;;;;38.90;18.10;;;-3.00;99.90;;;;;;4189351;28;20987;-51
2022/01/08 06:09:47;;;;;;;36.80;16.90;;;-3.00;99.90;;;;;;4189634;28;20664;-55
2022/01/08 06:11:48;;;;;;;35.77;17.40;;;-3.00;99.90;;;;;;4188906;28;20379;-49
2022/01/08 06:13:50;;;;;;;37.73;19.30;;;-2.90;99.90;;;;;;4190010;28;20350;-47
2022/01/08 06:15:51;;;;;;;35.97;18.83;;;-2.90;99.90;;;;;;4188825;28;20285;-49
2022/01/08 06:17:52;;;;;;;40.57;17.57;;;-2.90;99.90;;;;;;4189977;28;20273;-55
2022/01/08 06:19:54;;;;;;;36.03;17.37;;;-2.90;99.90;;;;;;4188722;28;20326;-48
2022/01/08 06:21:55;;;;;;;36.37;16.53;;;-2.90;99.90;;;;;;4189689;28;20737;-62
2022/01/08 06:23:56;;;;;;;37.10;16.90;;;-2.80;99.90;;;;;;4188979;28;20326;-48
2022/01/08 06:25:58;;;;;;;40.77;17.30;;;-2.80;99.90;;;;;;4190048;28;20273;-49
2022/01/08 06:27:59;;;;;;;41.20;18.23;;;-2.80;99.90;;;;;;4187765;28;20297;-49
2022/01/08 06:30:02;;;;;;;34.13;16.17;;;-2.80;99.90;;;;;;4189952;28;20270;-46
2022/01/08 06:32:03;;;;;;;34.43;16.87;;;-2.70;99.90;;;;;;4188406;28;20315;-53
2022/01/08 06:34:05;;;;;;;41.33;17.57;;;-2.70;99.90;;;;;;4189305;28;20347;-52
2022/01/08 06:36:06;;;;;;;38.83;17.20;;;-2.70;99.90;;;;;;4188823;28;20746;-50
2022/01/08 06:38:07;;;;;;;36.53;17.97;;;-2.70;99.90;;;;;;4189318;28;20331;-48
2022/01/08 06:40:09;;;;;;;34.80;18.07;;;-2.70;99.90;;;;;;4189379;28;20319;-48
2022/01/08 06:42:10;;;;;;;38.87;18.27;;;-2.70;99.90;;;;;;4188167;28;20347;-49
2022/01/08 06:44:11;;;;;;;37.13;17.77;;;-2.70;99.90;;;;;;4189208;28;20810;-48
2022/01/08 06:46:13;;;;;;;39.20;17.73;;;-2.60;99.90;;;;;;4188653;28;20281;-51
2022/01/08 06:48:14;;;;;;;38.80;16.13;;;-2.60;99.90;;;;;;4189847;28;20668;-58
2022/01/08 06:50:15;;;;;;;35.73;17.23;;;-2.50;99.90;;;;;;4188588;28;20281;-45
2022/01/08 06:52:17;;;;;;;37.00;17.27;;;-2.50;99.90;;;;;;4191382;28;20322;-48
2022/01/08 06:54:18;;;;;;;40.20;18.53;;;-2.50;99.90;;;;;;4191083;28;20359;-49
2022/01/08 06:56:19;;;;;;;38.33;18.07;;;-2.50;99.90;;;;;;4192801;28;20261;-49
2022/01/08 06:58:21;;;;;;;36.20;16.93;;;-2.50;99.90;;;;;;4191649;28;20265;-46
2022/01/08 07:00:22;;;;;;;31.67;15.13;;;-2.50;99.90;;;;;;4192462;28;21097;-60
2022/01/08 07:02:23;;;;;;;32.60;15.93;;;-2.50;99.90;;;;;;4191285;28;20575;-53
2022/01/08 07:04:24;;;;;;;35.93;16.20;;;-2.50;99.90;;;;;;4192037;28;20314;-50
2022/01/08 07:06:26;;;;;;;30.27;15.43;;;-2.50;99.90;;;;;;4189834;28;20258;-58
2022/01/08 07:08:27;;;;;;;31.40;15.57;;;-2.50;99.90;;;;;;4191819;28;20277;-49
2022/01/08 07:10:28;;;;;;;35.23;17.03;;;-2.50;99.90;;;;;;4191346;28;20261;-56
2022/01/08 07:12:30;;;;;;;34.67;15.77;;;-2.50;99.90;;;;;;4191136;28;20273;-49
2022/01/08 07:14:31;;;;;;;30.10;16.83;;;-2.50;99.90;;;;;;4191309;28;20358;-51
2022/01/08 07:16:33;;;;;;;31.07;16.40;;;-2.50;99.90;;;;;;4190995;28;20343;-53
2022/01/08 07:18:34;;;;;;;45.37;18.37;;;-2.40;99.90;;;;;;4191718;28;20422;-52
2022/01/08 07:20:35;;;;;;;35.13;17.00;;;-2.40;99.90;;;;;;4190285;28;20813;-48
2022/01/08 07:22:36;;;;;;;40.97;18.33;;;-2.30;99.90;;;;;;4191882;28;20627;-59
2022/01/08 07:24:39;;;;;;;36.27;18.17;;;-2.30;99.90;;;;;;4190843;28;20799;-58
2022/01/08 07:26:40;;;;;;;33.93;17.20;;;-2.30;99.90;;;;;;4191968;28;20599;-63
2022/01/08 07:28:41;;;;;;;35.97;18.20;;;-2.30;99.90;;;;;;4190462;28;20350;-52
2022/01/08 07:30:42;;;;;;;40.20;18.60;;;-2.20;99.90;;;;;;4192222;28;20757;-61
2022/01/08 07:32:46;;;;;;;36.53;18.27;;;-2.20;99.90;;;;;;4190087;28;20269;-61
2022/01/08 07:34:47;;;;;;;36.67;18.20;;;-2.20;99.90;;;;;;4191805;28;20293;-58
2022/01/08 07:36:48;;;;;;;36.90;18.47;;;-2.10;99.90;;;;;;4190723;28;20265;-51
2022/01/08 07:38:50;;;;;;;41.57;19.57;;;-2.10;99.90;;;;;;4191241;28;20781;-63
2022/01/08 07:40:52;;;;;;;40.73;19.00;;;-2.00;99.90;;;;;;4191162;28;20331;-50
2022/01/08 07:42:54;;;;;;;39.03;18.67;;;-1.90;99.90;;;;;;4190536;28;20747;-52
2022/01/08 07:44:55;;;;;;;39.57;19.03;;;-1.80;99.90;;;;;;4191726;28;20306;-48
2022/01/08 07:46:58;;;;;;;38.27;18.17;;;-1.80;99.90;;;;;;4190199;28;20330;-51
2022/01/08 07:49:00;;;;;;;41.57;18.90;;;-1.80;99.90;;;;;;4191575;28;20254;-50
2022/01/08 07:51:01;;;;;;;40.13;19.33;;;-1.80;99.90;;;;;;4190461;28;20331;-48
2022/01/08 07:53:02;;;;;;;37.37;19.20;;;-1.80;99.90;;;;;;4191770;28;20269;-62
2022/01/08 07:55:04;;;;;;;33.40;18.07;;;-1.80;99.90;;;;;;4190506;28;20334;-49
2022/01/08 07:57:05;;;;;;;42.87;18.33;;;-1.70;99.90;;;;;;4191556;28;20761;-52
2022/01/08 07:59:06;;;;;;;38.93;20.20;;;-1.80;99.90;;;;;;4190134;28;20273;-56
2022/01/08 08:01:07;;;;;;;36.27;19.00;;;-1.80;99.90;;;;;;4191855;28;20338;-51
2022/01/08 08:03:08;;;;;;;42.57;21.20;;;-1.80;99.90;;;;;;4190005;28;20273;-51
2022/01/08 08:05:09;;;;;;;34.73;19.47;;;-1.80;99.90;;;;;;4190972;28;20323;-58
2022/01/08 08:07:11;;;;;;;33.93;18.50;;;-1.80;99.90;;;;;;4190116;28;20331;-53
2022/01/08 08:09:12;;;;;;;43.97;19.83;;;-1.80;99.90;;;;;;4190499;28;20285;-57
2022/01/08 08:11:13;;;;;;;48.43;20.67;;;-1.80;99.90;;;;;;4190691;28;20738;-58
2022/01/08 08:13:15;;;;;;;42.57;19.47;;;-1.80;99.90;;;;;;4190086;28;20281;-52
2022/01/08 08:15:17;;;;;;;42.73;19.73;;;-1.80;99.90;;;;;;4190481;28;20808;-56
2022/01/08 08:17:18;;;;;;;43.87;21.60;;;-1.80;99.90;;;;;;4190193;28;20351;-58
2022/01/08 08:19:19;;;;;;;42.87;20.53;;;-1.80;99.90;;;;;;4191348;28;20261;-55
2022/01/08 08:21:20;;;;;;;42.07;19.50;;;-1.80;99.90;;;;;;4189807;28;20322;-56
2022/01/08 08:23:21;;;;;;;46.43;22.43;;;-1.70;99.90;;;;;;4191254;28;20261;-54
2022/01/08 08:25:23;;;;;;;50.77;24.03;;;-1.70;99.90;;;;;;4189530;28;20300;-56
2022/01/08 08:27:24;;;;;;;47.27;23.47;;;-1.70;99.90;;;;;;4190984;28;20323;-55
2022/01/08 08:29:25;;;;;;;56.87;27.13;;;-1.70;99.90;;;;;;4188320;28;20340;-57
2022/01/08 08:31:26;;;;;;;47.03;24.80;;;-1.70;99.90;;;;;;4190803;28;20335;-59
2022/01/08 08:33:27;;;;;;;50.13;23.27;;;-1.70;99.90;;;;;;4189138;28;20343;-53
2022/01/08 08:35:28;;;;;;;45.07;20.83;;;-1.70;99.90;;;;;;4191012;28;20270;-60
2022/01/08 08:37:29;;;;;;;43.97;20.23;;;-1.70;99.90;;;;;;4189388;28;20273;-52
2022/01/08 08:39:31;;;;;;;39.43;19.43;;;-1.70;99.90;;;;;;4190388;28;20281;-56
2022/01/08 08:41:32;;;;;;;39.50;19.57;;;-1.70;99.90;;;;;;4189888;28;20372;-56
2022/01/08 08:43:33;;;;;;;44.80;20.70;;;-1.70;99.90;;;;;;4189944;28;20281;-50
2022/01/08 08:45:34;;;;;;;44.57;22.10;;;-1.70;99.90;;;;;;4190272;28;20414;-56
2022/01/08 08:47:36;;;;;;;46.97;22.80;;;-1.70;99.90;;;;;;4189601;28;21114;-59
2022/01/08 08:49:37;;;;;;;46.03;22.70;;;-1.70;99.90;;;;;;4190771;28;20291;-54
2022/01/08 08:51:38;;;;;;;43.87;22.00;;;-1.70;99.90;;;;;;4189253;28;20672;-49
2022/01/08 08:53:39;;;;;;;45.67;21.50;;;-1.70;99.90;;;;;;4185663;28;20301;-57
2022/01/08 08:55:40;;;;;;;44.03;21.87;;;-1.70;99.90;;;;;;4184107;28;20281;-65
2022/01/08 08:57:42;;;;;;;49.47;21.70;;;-1.70;99.90;;;;;;4190521;28;20289;-57
2022/01/08 08:59:43;;;;;;;44.93;20.97;;;-1.70;99.90;;;;;;4189099;28;20277;-64
2022/01/08 09:01:45;;;;;;;42.77;22.20;;;-1.60;99.90;;;;;;4190285;28;20323;-50
2022/01/08 09:03:47;;;;;;;48.90;22.57;;;-1.60;99.90;;;;;;4188778;28;20331;-51
2022/01/08 09:05:48;;;;;;;50.33;25.77;;;-1.60;99.90;;;;;;4190040;28;20281;-64
2022/01/08 09:07:49;;;;;;;48.40;24.43;;;-1.60;99.90;;;;;;4189073;28;20335;-51
2022/01/08 09:09:50;;;;;;;52.47;25.13;;;-1.60;99.90;;;;;;4189823;28;20700;-56
2022/01/08 09:11:52;;;;;;;52.23;26.53;;;-1.60;99.90;;;;;;4188990;28;20338;-53
2022/01/08 09:13:53;;;;;;;51.47;27.17;;;-1.60;99.90;;;;;;4188900;28;20355;-58
2022/01/08 09:15:55;;;;;;;53.17;24.97;;;-1.60;99.90;;;;;;4189057;28;20312;-49
2022/01/08 09:17:58;;;;;;;53.87;25.53;;;-1.50;99.90;;;;;;4189923;28;20367;-56
2022/01/08 09:19:59;;;;;;;52.83;25.57;;;-1.50;99.90;;;;;;4190251;28;20299;-53
2022/01/08 09:22:02;;;;;;;49.47;22.20;;;-1.40;99.90;;;;;;4188601;28;20335;-49
2022/01/08 09:24:03;;;;;;;48.23;23.40;;;-1.40;99.90;;;;;;4190371;28;20327;-57
2022/01/08 09:26:05;;;;;;;44.57;21.50;;;-1.40;99.90;;;;;;4188835;28;20317;-55
2022/01/08 09:28:07;;;;;;;45.77;22.57;;;-1.30;99.90;;;;;;4192951;28;20292;-52
2022/01/08 09:30:08;;;;;;;44.90;21.93;;;-1.20;99.90;;;;;;4205216;28;20755;-53
2022/01/08 09:32:10;;;;;;;45.67;21.87;;;-1.20;99.90;;;;;;4206455;28;20273;-53
2022/01/08 09:34:12;;;;;;;45.30;22.73;;;-1.20;99.90;;;;;;4205146;28;20350;-55
2022/01/08 09:36:13;;;;;;;40.80;19.60;;;-1.20;99.90;;;;;;4206917;28;20280;-54
2022/01/08 09:38:14;;;;;;;49.87;20.77;;;-1.10;99.90;;;;;;4205600;28;20298;-52
2022/01/08 09:40:18;;;;;;;42.60;19.57;;;-1.10;99.90;;;;;;4206791;28;20260;-52
2022/01/08 09:42:19;;;;;;;40.23;20.20;;;-1.00;99.90;;;;;;4205722;28;20334;-55
2022/01/08 09:44:21;;;;;;;36.17;18.70;;;-1.00;99.90;;;;;;4206256;28;20294;-56
2022/01/08 09:46:22;;;;;;;43.53;20.43;;;-0.90;99.90;;;;;;4206334;28;20767;-57
2022/01/08 09:48:24;;;;;;;35.20;17.43;;;-0.90;99.90;;;;;;4205562;28;20370;-65
2022/01/08 09:50:26;;;;;;;52.03;21.40;;;-0.80;99.90;;;;;;4205507;28;20386;-61
2022/01/08 09:52:29;;;;;;;36.60;17.70;;;-0.80;99.90;;;;;;4205019;28;20373;-67
2022/01/08 09:54:31;;;;;;;28.73;15.43;;;-0.70;99.90;;;;;;4206238;28;20296;-62
2022/01/08 09:56:33;;;;;;;27.17;13.90;;;-0.70;99.90;;;;;;4205039;28;20277;-55
2022/01/08 09:58:35;;;;;;;31.37;15.77;;;-0.70;99.90;;;;;;4206589;28;20277;-59
2022/01/08 10:00:36;;;;;;;32.60;16.63;;;-0.60;99.90;;;;;;4205158;28;20309;-53
2022/01/08 10:02:37;;;;;;;41.27;18.97;;;-0.60;99.90;;;;;;4206712;28;20755;-60
2022/01/08 10:04:40;;;;;;;34.67;16.83;;;-0.60;99.90;;;;;;4205524;28;20252;-54
2022/01/08 10:06:42;;;;;;;36.27;18.40;;;-0.60;99.90;;;;;;4206658;28;21075;-56
2022/01/08 10:08:43;;;;;;;44.53;18.43;;;-0.70;99.90;;;;;;4203777;28;20256;-58
2022/01/08 10:10:56;;;;;;;31.67;16.97;;;-0.70;99.90;;;;;;4205963;28;20273;-67
2022/01/08 10:13:00;;;;;;;36.63;19.13;;;-0.70;99.90;;;;;;4204896;28;20377;-66
2022/01/08 10:17:42;;;;;;;34.23;17.47;;;-0.60;99.90;;;;;;4205763;28;20842;-60
2022/01/08 10:19:44;;;;;;;33.97;17.80;;;-0.70;99.90;;;;;;4206347;28;20362;-52
2022/01/08 10:21:46;;;;;;;37.37;18.80;;;-0.60;99.90;;;;;;4204956;28;20044;-58
2022/01/08 10:23:48;;;;;;;38.90;19.20;;;-0.60;99.90;;;;;;4206554;28;20688;-63
2022/01/08 10:26:02;;;;;;;36.73;17.67;;;-0.60;99.90;;;;;;4206323;28;20632;-54
2022/01/08 10:28:04;;;;;;;36.00;17.80;;;-0.60;99.90;;;;;;4195299;28;20342;-58
2022/01/08 10:30:05;;;;;;;36.97;18.40;;;-0.50;99.90;;;;;;4191269;28;20266;-50
2022/01/08 10:32:07;;;;;;;38.13;18.10;;;-0.50;99.90;;;;;;4192543;28;20351;-57
2022/01/08 10:34:17;;;;;;;36.13;17.87;;;-0.50;99.90;;;;;;4191822;28;20335;-74
2022/01/08 10:36:26;;;;;;;36.88;18.65;;;-0.40;99.90;;;;;;4192561;28;20281;-62
2022/01/08 10:38:28;;;;;;;36.47;18.10;;;-0.40;99.90;;;;;;4191261;28;20024;-57
2022/01/08 10:40:35;;;;;;;35.43;19.37;;;-0.40;99.90;;;;;;4191787;28;20311;-62